createdAt,value
2018-07-05T00:02:06.628Z,6.63
2018-07-05T00:04:46.276Z,6.30
2018-07-05T00:07:26.003Z,6.87
2018-07-05T00:10:05.647Z,6.23
2018-07-05T00:12:45.326Z,7.03
2018-07-05T00:15:18.966Z,6.50
2018-07-05T00:17:58.638Z,6.53
2018-07-05T00:20:38.270Z,7.03
2018-07-05T00:23:17.891Z,7.10
2018-07-05T00:25:57.525Z,6.87
2018-07-05T00:28:37.089Z,6.60
2018-07-05T00:31:16.842Z,6.33
2018-07-05T00:33:56.466Z,7.53
2018-07-05T00:36:36.016Z,6.27
2018-07-05T00:39:15.601Z,7.40
2018-07-05T00:41:49.215Z,6.93
2018-07-05T00:44:28.668Z,6.80
2018-07-05T00:47:08.454Z,7.23
2018-07-05T00:49:48.088Z,6.33
2018-07-05T00:52:27.794Z,6.73
2018-07-05T00:55:01.319Z,6.60
2018-07-05T00:57:41.294Z,6.70
2018-07-05T01:00:21.003Z,7.37
2018-07-05T01:03:00.448Z,7.03
2018-07-05T01:05:40.119Z,7.17
2018-07-05T01:08:19.760Z,7.60
2018-07-05T01:10:59.293Z,7.20
2018-07-05T01:13:38.802Z,7.20
2018-07-05T01:16:18.601Z,7.50
2018-07-05T01:18:58.010Z,7.03
2018-07-05T01:21:37.651Z,7.20
2018-07-05T01:24:17.199Z,7.00
2018-07-05T01:26:56.879Z,7.10
2018-07-05T01:29:30.257Z,6.90
2018-07-05T01:32:09.976Z,7.27
2018-07-05T01:34:49.625Z,6.43
2018-07-05T01:37:29.377Z,8.13
2018-07-05T01:40:08.819Z,8.37
2018-07-05T01:42:48.418Z,7.60
2018-07-05T01:45:28.098Z,6.90
2018-07-05T01:48:07.724Z,7.67
2018-07-05T01:50:47.503Z,8.20
2018-07-05T01:53:27.133Z,7.73
2018-07-05T01:56:06.655Z,7.77
2018-07-05T01:58:46.346Z,7.77
2018-07-05T02:01:19.855Z,7.00
2018-07-05T02:03:59.335Z,7.90
2018-07-05T02:06:39.011Z,7.33
2018-07-05T02:09:18.758Z,6.93
2018-07-05T02:11:58.712Z,7.53
2018-07-05T02:14:32.459Z,7.53
2018-07-05T02:17:12.056Z,7.30
2018-07-05T02:19:51.607Z,7.47
2018-07-05T02:22:25.291Z,7.20
2018-07-05T02:25:04.828Z,7.73
2018-07-05T02:27:44.567Z,7.10
2018-07-05T02:30:24.107Z,8.03
2018-07-05T02:33:03.860Z,8.13
2018-07-05T02:35:43.367Z,7.73
2018-07-05T02:38:23.956Z,7.53
2018-07-05T02:41:04.736Z,7.17
2018-07-05T02:43:44.680Z,7.10
2018-07-05T02:46:24.411Z,7.73
2018-07-05T02:49:04.180Z,7.47
2018-07-05T02:51:43.731Z,7.33
2018-07-05T02:54:17.555Z,8.50
2018-07-05T02:56:57.411Z,8.50
2018-07-05T02:59:37.112Z,8.83
2018-07-05T03:02:17.166Z,8.67
2018-07-05T03:04:57.012Z,8.03
2018-07-05T03:07:36.929Z,8.87
2018-07-05T03:10:16.368Z,8.13
2018-07-05T03:12:56.092Z,8.80
2018-07-05T03:15:35.768Z,8.73
2018-07-05T03:18:15.627Z,8.63
2018-07-05T03:20:55.379Z,9.67
2018-07-05T03:23:35.112Z,9.70
2018-07-05T03:26:14.858Z,9.63
2018-07-05T03:28:54.434Z,9.53
2018-07-05T03:31:28.123Z,9.30
2018-07-05T03:34:07.746Z,8.93
2018-07-05T03:36:47.379Z,9.13
2018-07-05T03:39:27.003Z,8.57
2018-07-05T03:42:06.514Z,8.53
2018-07-05T03:44:39.931Z,8.60
2018-07-05T03:47:19.625Z,8.60
2018-07-05T03:49:59.363Z,8.17
2018-07-05T03:52:38.848Z,8.57
2018-07-05T03:55:18.427Z,9.50
2018-07-05T03:57:58.123Z,9.50
2018-07-05T04:00:37.727Z,9.50
2018-07-05T04:03:17.468Z,10.43
2018-07-05T04:05:57.079Z,10.73
2018-07-05T04:08:36.864Z,11.27
2018-07-05T04:11:16.609Z,12.23
2018-07-05T04:13:56.350Z,12.33
2018-07-05T04:16:36.028Z,13.33
2018-07-05T04:19:15.692Z,13.20
2018-07-05T04:21:55.260Z,13.30
2018-07-05T04:24:34.927Z,13.77
2018-07-05T04:27:14.480Z,13.33
2018-07-05T04:29:48.045Z,13.23
2018-07-05T04:32:27.775Z,15.30
2018-07-05T04:35:07.368Z,15.90
2018-07-05T04:37:46.983Z,16.73
2018-07-05T04:40:26.609Z,17.50
2018-07-05T04:43:06.304Z,17.33
2018-07-05T04:45:45.980Z,18.03
2018-07-05T04:48:25.647Z,19.83
2018-07-05T04:51:05.351Z,19.43
2018-07-05T04:53:45.027Z,19.50
2018-07-05T04:56:24.667Z,19.17
2018-07-05T04:59:04.475Z,20.60
2018-07-05T05:01:44.155Z,20.90
2018-07-05T05:04:23.947Z,19.93
2018-07-05T05:06:57.627Z,20.43
2018-07-05T05:09:37.355Z,20.77
2018-07-05T05:12:16.846Z,20.20
2018-07-05T05:14:56.618Z,16.30
2018-07-05T05:17:36.232Z,19.20
2018-07-05T05:20:15.864Z,19.43
2018-07-05T05:22:49.354Z,19.43
2018-07-05T05:25:22.915Z,18.73
2018-07-05T05:28:02.632Z,19.40
2018-07-05T05:30:42.326Z,16.97
2018-07-05T05:33:22.076Z,17.33
2018-07-05T05:36:01.796Z,16.93
2018-07-05T05:38:41.492Z,16.90
2018-07-05T05:41:21.311Z,16.20
2018-07-05T05:44:01.160Z,16.93
2018-07-05T05:46:40.724Z,17.70
2018-07-05T05:49:14.415Z,16.17
2018-07-05T05:51:48.026Z,16.37
2018-07-05T05:54:27.611Z,16.30
2018-07-05T05:57:07.296Z,16.40
2018-07-05T05:59:40.967Z,16.83
2018-07-05T06:02:20.747Z,16.03
2018-07-05T06:04:54.423Z,15.80
2018-07-05T06:07:33.991Z,15.90
2018-07-05T06:10:07.607Z,14.20
2018-07-05T06:12:47.280Z,14.80
2018-07-05T06:15:27.049Z,14.50
2018-07-05T06:18:06.603Z,14.27
2018-07-05T06:20:46.410Z,15.20
2018-07-05T06:23:26.097Z,14.13
2018-07-05T06:26:05.715Z,13.43
2018-07-05T06:28:45.593Z,11.87
2018-07-05T06:31:25.187Z,12.73
2018-07-05T06:34:04.954Z,11.87
2018-07-05T06:36:44.499Z,11.47
2018-07-05T06:39:24.111Z,10.27
2018-07-05T06:42:03.764Z,9.03
2018-07-05T06:44:43.566Z,9.10
2018-07-05T06:47:17.080Z,7.67
2018-07-05T06:49:56.725Z,7.80
2018-07-05T06:52:36.325Z,8.97
2018-07-05T06:55:16.022Z,8.40
2018-07-05T06:57:55.667Z,9.10
2018-07-05T07:00:35.343Z,8.60
2018-07-05T07:03:15.220Z,7.63
2018-07-05T07:05:54.803Z,7.77
2018-07-05T07:08:34.376Z,8.90
2018-07-05T07:11:14.028Z,7.77
2018-07-05T07:13:53.602Z,8.47
2018-07-05T07:16:33.087Z,8.00
2018-07-05T07:19:12.855Z,7.60
2018-07-05T07:21:52.477Z,8.73
2018-07-05T07:24:31.954Z,8.87
2018-07-05T07:27:05.484Z,8.03
2018-07-05T07:29:45.231Z,8.10
2018-07-05T07:32:25.047Z,7.47
2018-07-05T07:35:04.727Z,7.27
2018-07-05T07:37:44.508Z,7.97
2018-07-05T07:40:24.161Z,8.17
2018-07-05T07:42:51.323Z,7.10
2018-07-05T07:45:18.782Z,6.77
2018-07-05T07:47:45.939Z,7.20
2018-07-05T07:50:13.123Z,6.83
2018-07-05T07:52:40.288Z,6.07
2018-07-05T07:55:07.473Z,7.57
2018-07-05T07:57:34.643Z,7.57
2018-07-05T08:00:02.090Z,7.37
2018-07-05T08:02:29.533Z,8.03
2018-07-05T08:04:56.737Z,8.23
2018-07-05T08:07:23.890Z,8.13
2018-07-05T08:09:51.078Z,9.40
2018-07-05T08:12:18.248Z,11.37
2018-07-05T08:14:45.683Z,10.13
2018-07-05T08:17:12.855Z,9.90
2018-07-05T08:19:40.314Z,10.07
2018-07-05T08:22:07.744Z,11.23
2018-07-05T08:24:34.930Z,12.23
2018-07-05T08:27:02.100Z,11.77
2018-07-05T08:29:29.359Z,11.73
2018-07-05T08:31:56.503Z,10.37
2018-07-05T08:34:23.696Z,11.33
2018-07-05T08:36:50.971Z,13.80
2018-07-05T08:39:18.439Z,14.90
2018-07-05T08:41:46.830Z,13.90
2018-07-05T08:44:14.035Z,10.93
2018-07-05T08:46:41.305Z,11.47
2018-07-05T08:49:08.483Z,12.80
2018-07-05T08:51:35.647Z,11.80
2018-07-05T08:54:02.843Z,14.83
2018-07-05T08:56:30.012Z,16.30
2018-07-05T08:58:57.487Z,12.87
2018-07-05T09:01:24.656Z,14.63
2018-07-05T09:03:51.844Z,12.50
2018-07-05T09:06:19.024Z,11.90
2018-07-05T09:08:46.516Z,14.00
2018-07-05T09:11:13.667Z,12.47
2018-07-05T09:13:40.840Z,12.17
2018-07-05T09:16:08.023Z,14.23
2018-07-05T09:18:35.208Z,14.03
2018-07-05T09:21:02.399Z,13.47
2018-07-05T09:23:29.714Z,14.37
2018-07-05T09:25:56.766Z,13.33
2018-07-05T09:28:23.926Z,12.50
2018-07-05T09:30:51.110Z,15.23
2018-07-05T09:33:18.285Z,19.23
2018-07-05T09:35:45.455Z,14.83
2018-07-05T09:38:12.642Z,16.00
2018-07-05T09:40:39.812Z,14.43
2018-07-05T09:43:06.999Z,13.83
2018-07-05T09:45:34.176Z,13.27
2018-07-05T09:48:01.364Z,14.87
2018-07-05T09:50:28.543Z,15.97
2018-07-05T09:52:55.864Z,15.33
2018-07-05T09:55:23.052Z,14.87
2018-07-05T09:57:50.224Z,14.87
2018-07-05T10:00:17.394Z,18.50
2018-07-05T10:02:44.567Z,16.67
2018-07-05T10:05:11.745Z,15.27
2018-07-05T10:07:38.919Z,15.73
2018-07-05T10:10:06.107Z,14.30
2018-07-05T10:12:33.283Z,16.00
2018-07-05T10:15:00.739Z,14.07
2018-07-05T10:17:28.183Z,14.27
2018-07-05T10:19:55.618Z,14.40
2018-07-05T10:22:22.800Z,15.10
2018-07-05T10:24:50.254Z,13.80
2018-07-05T10:27:17.678Z,16.90
2018-07-05T10:29:57.219Z,13.50
2018-07-05T10:32:36.986Z,14.00
2018-07-05T10:35:04.171Z,13.37
2018-07-05T10:37:31.340Z,13.43
2018-07-05T10:40:10.982Z,15.17
2018-07-05T10:42:50.539Z,14.33
2018-07-05T10:45:30.191Z,15.07
2018-07-05T10:48:09.943Z,14.17
2018-07-05T10:50:49.698Z,14.10
2018-07-05T10:53:29.343Z,15.57
2018-07-05T10:56:09.090Z,16.10
2018-07-05T10:58:48.835Z,14.73
2018-07-05T11:01:22.342Z,16.17
2018-07-05T11:03:55.946Z,15.03
2018-07-05T11:06:29.541Z,13.53
2018-07-05T11:09:03.487Z,15.40
2018-07-05T11:11:43.139Z,14.53
2018-07-05T11:14:22.853Z,14.13
2018-07-05T11:17:02.511Z,15.57
2018-07-05T11:19:41.976Z,17.60
2018-07-05T11:22:21.691Z,20.60
2018-07-05T11:25:01.330Z,18.00
2018-07-05T11:27:40.848Z,18.27
2018-07-05T11:30:20.686Z,16.63
2018-07-05T11:33:00.287Z,20.27
2018-07-05T11:35:39.997Z,16.03
2018-07-05T11:38:19.753Z,19.93
2018-07-05T11:40:59.322Z,20.40
2018-07-05T11:43:39.072Z,19.70
2018-07-05T11:46:18.828Z,17.47
2018-07-05T11:48:58.571Z,18.57
2018-07-05T11:51:38.308Z,16.67
2018-07-05T11:54:18.047Z,17.43
2018-07-05T11:56:57.604Z,19.23
2018-07-05T11:59:37.234Z,20.90
2018-07-05T12:02:16.787Z,22.47
2018-07-05T12:04:50.464Z,20.57
2018-07-05T12:07:30.108Z,20.17
2018-07-05T12:10:09.876Z,21.67
2018-07-05T12:12:43.451Z,19.13
2018-07-05T12:15:23.119Z,20.90
2018-07-05T12:17:56.948Z,21.00
2018-07-05T12:20:37.163Z,18.67
2018-07-05T12:23:16.823Z,35.13
2018-07-05T12:25:56.559Z,20.73
2018-07-05T12:28:36.195Z,17.87
2018-07-05T12:31:15.640Z,18.77
2018-07-05T12:33:49.195Z,17.73
2018-07-05T12:36:28.880Z,16.80
2018-07-05T12:39:08.616Z,14.43
2018-07-05T12:41:48.272Z,14.23
2018-07-05T12:44:28.002Z,14.03
2018-07-05T12:47:07.437Z,15.70
2018-07-05T12:49:46.938Z,14.10
2018-07-05T12:52:26.648Z,15.87
2018-07-05T12:55:06.255Z,15.43
2018-07-05T12:57:45.811Z,16.53
2018-07-05T13:00:25.325Z,17.47
2018-07-05T13:03:04.988Z,14.83
2018-07-05T13:05:44.603Z,16.33
2018-07-05T13:08:24.371Z,16.97
2018-07-05T13:11:03.882Z,16.30
2018-07-05T13:13:43.561Z,17.30
2018-07-05T13:16:17.506Z,15.30
2018-07-05T13:18:57.403Z,18.27
2018-07-05T13:21:37.155Z,15.40
2018-07-05T13:24:16.993Z,14.10
2018-07-05T13:26:56.516Z,13.33
2018-07-05T13:29:36.191Z,13.50
2018-07-05T13:32:09.806Z,12.67
2018-07-05T13:34:49.487Z,14.13
2018-07-05T13:37:29.063Z,13.23
2018-07-05T13:40:08.623Z,12.40
2018-07-05T13:42:48.358Z,11.33
2018-07-05T13:45:21.952Z,11.37
2018-07-05T13:48:01.687Z,12.93
2018-07-05T13:50:41.433Z,10.83
2018-07-05T13:53:21.068Z,12.20
2018-07-05T13:56:00.655Z,10.57
2018-07-05T13:58:40.248Z,9.70
2018-07-05T14:01:19.798Z,11.80
2018-07-05T14:03:59.487Z,11.20
2018-07-05T14:06:40.206Z,11.03
2018-07-05T14:09:19.952Z,11.20
2018-07-05T14:11:59.697Z,9.60
2018-07-05T14:14:39.286Z,8.73
2018-07-05T14:17:18.924Z,8.27
2018-07-05T14:19:58.631Z,10.50
2018-07-05T14:22:32.091Z,9.67
2018-07-05T14:25:11.735Z,9.13
2018-07-05T14:27:51.283Z,12.00
2018-07-05T14:30:31.447Z,9.83
2018-07-05T14:33:10.955Z,9.03
2018-07-05T14:35:50.596Z,9.70
2018-07-05T14:38:30.251Z,10.50
2018-07-05T14:41:09.788Z,7.20
2018-07-05T14:43:49.400Z,8.60
2018-07-05T14:46:28.944Z,7.80
2018-07-05T14:49:08.629Z,7.37
2018-07-05T14:51:48.234Z,6.93
2018-07-05T14:54:27.912Z,7.30
2018-07-05T14:57:07.647Z,6.90
2018-07-05T14:59:47.183Z,7.17
2018-07-05T15:02:26.738Z,7.63
2018-07-05T15:05:06.439Z,6.63
2018-07-05T15:07:46.136Z,7.07
2018-07-05T15:10:25.784Z,7.10
2018-07-05T15:12:59.370Z,5.97
2018-07-05T15:15:39.095Z,5.77
2018-07-05T15:18:18.764Z,7.50
2018-07-05T15:20:58.511Z,7.53
2018-07-05T15:23:31.946Z,6.07
2018-07-05T15:26:11.575Z,7.40
2018-07-05T15:28:51.523Z,6.43
2018-07-05T15:31:31.239Z,5.53
2018-07-05T15:34:04.675Z,6.20
2018-07-05T15:36:44.522Z,6.80
2018-07-05T15:39:24.180Z,7.23
2018-07-05T15:42:03.817Z,7.23
2018-07-05T15:44:43.631Z,7.23
2018-07-05T15:47:23.244Z,7.67
2018-07-05T15:50:02.920Z,8.73
2018-07-05T15:52:42.467Z,6.70
2018-07-05T15:55:22.030Z,6.10
2018-07-05T15:58:01.593Z,7.13
2018-07-05T16:00:41.275Z,6.83
2018-07-05T16:03:14.843Z,6.90
2018-07-05T16:05:55.387Z,6.40
2018-07-05T16:08:35.187Z,6.60
2018-07-05T16:11:14.780Z,6.83
2018-07-05T16:13:54.421Z,7.00
2018-07-05T16:16:34.043Z,6.80
2018-07-05T16:19:13.797Z,6.60
2018-07-05T16:21:53.519Z,7.17
2018-07-05T16:24:33.237Z,7.00
2018-07-05T16:27:12.816Z,6.50
2018-07-05T16:29:52.562Z,6.50
2018-07-05T16:32:32.180Z,6.73
2018-07-05T16:35:11.855Z,6.83
2018-07-05T16:37:51.517Z,6.97
2018-07-05T16:40:30.996Z,6.53
2018-07-05T16:43:10.492Z,6.60
2018-07-05T16:45:50.139Z,6.27
2018-07-05T16:48:23.798Z,6.00
2018-07-05T16:51:03.606Z,6.07
2018-07-05T16:53:43.221Z,6.40
2018-07-05T16:56:22.966Z,6.70
2018-07-05T16:59:02.548Z,6.90
2018-07-05T17:01:42.024Z,6.67
2018-07-05T17:04:21.571Z,6.70
2018-07-05T17:07:01.231Z,6.50
2018-07-05T17:09:34.767Z,6.60
2018-07-05T17:12:14.415Z,6.73
2018-07-05T17:14:54.229Z,6.50
2018-07-05T17:17:33.865Z,6.63
2018-07-05T17:20:13.524Z,6.77
2018-07-05T17:22:53.202Z,6.30
2018-07-05T17:25:32.860Z,5.60
2018-07-05T17:28:12.551Z,6.03
2018-07-05T17:30:52.264Z,5.97
2018-07-05T17:33:31.943Z,5.57
2018-07-05T17:36:11.636Z,6.00
2018-07-05T17:38:51.242Z,5.70
2018-07-05T17:41:30.758Z,6.13
2018-07-05T17:44:04.292Z,7.10
2018-07-05T17:46:43.966Z,7.17
2018-07-05T17:49:23.708Z,7.60
2018-07-05T17:52:03.372Z,7.37
2018-07-05T17:54:42.831Z,7.90
2018-07-05T17:57:22.443Z,7.50
2018-07-05T17:59:56.025Z,7.30
2018-07-05T18:02:35.627Z,6.90
2018-07-05T18:05:15.307Z,7.70
2018-07-05T18:07:55.007Z,7.63
2018-07-05T18:10:34.797Z,7.87
2018-07-05T18:13:14.363Z,7.67
2018-07-05T18:15:48.038Z,7.20
2018-07-05T18:18:27.819Z,7.50
2018-07-05T18:21:01.359Z,7.50
2018-07-05T18:23:40.782Z,7.10
2018-07-05T18:26:20.499Z,6.50
2018-07-05T18:29:00.228Z,7.00
2018-07-05T18:31:39.749Z,6.40
2018-07-05T18:34:19.344Z,6.67
2018-07-05T18:36:58.857Z,5.60
2018-07-05T18:39:38.463Z,6.03
2018-07-05T18:42:18.011Z,6.30
2018-07-05T18:44:57.578Z,5.40
2018-07-05T18:47:31.254Z,5.37
2018-07-05T18:50:10.988Z,5.87
2018-07-05T18:52:50.698Z,5.40
2018-07-05T18:55:30.403Z,5.10
2018-07-05T18:58:03.835Z,5.60
2018-07-05T19:00:43.635Z,5.53
2018-07-05T19:03:17.160Z,5.20
2018-07-05T19:05:56.968Z,6.60
2018-07-05T19:08:36.799Z,5.33
2018-07-05T19:11:16.364Z,5.40
2018-07-05T19:13:55.979Z,5.20
2018-07-05T19:16:35.893Z,5.20
2018-07-05T19:19:15.363Z,5.20
2018-07-05T19:21:54.847Z,5.70
2018-07-05T19:24:28.386Z,5.47
2018-07-05T19:27:08.050Z,5.50
2018-07-05T19:29:47.807Z,5.23
2018-07-05T19:32:27.773Z,5.27
2018-07-05T19:35:07.379Z,5.30
2018-07-05T19:37:47.099Z,5.33
2018-07-05T19:40:26.811Z,5.83
2018-07-05T19:43:00.375Z,5.63
2018-07-05T19:45:40.093Z,5.20
2018-07-05T19:48:19.749Z,5.47
2018-07-05T19:50:59.532Z,5.80
2018-07-05T19:53:39.204Z,5.67
2018-07-05T19:56:18.819Z,6.17
2018-07-05T19:58:58.519Z,6.33
2018-07-05T20:01:38.216Z,6.80
2018-07-05T20:04:17.747Z,5.97
2018-07-05T20:06:57.578Z,6.63
2018-07-05T20:09:36.988Z,6.57
2018-07-05T20:12:16.655Z,6.17
2018-07-05T20:14:56.111Z,6.60
2018-07-05T20:17:35.697Z,7.73
2018-07-05T20:20:15.412Z,6.97
2018-07-05T20:22:54.999Z,6.07
2018-07-05T20:25:34.902Z,6.23
2018-07-05T20:28:08.658Z,6.40
2018-07-05T20:30:48.173Z,6.70
2018-07-05T20:33:27.752Z,6.80
2018-07-05T20:36:07.423Z,6.70
2018-07-05T20:38:46.927Z,6.00
2018-07-05T20:41:26.627Z,6.93
2018-07-05T20:44:06.327Z,6.93
2018-07-05T20:46:39.888Z,7.47
2018-07-05T20:49:19.499Z,7.37
2018-07-05T20:51:59.118Z,7.13
2018-07-05T20:54:38.663Z,7.47
2018-07-05T20:57:18.282Z,7.37
2018-07-05T20:59:58.056Z,6.60
2018-07-05T21:02:31.875Z,6.53
2018-07-05T21:05:05.550Z,7.93
2018-07-05T21:07:45.096Z,7.50
2018-07-05T21:10:24.727Z,7.50
2018-07-05T21:13:04.279Z,7.10
2018-07-05T21:15:43.812Z,8.10
2018-07-05T21:18:23.526Z,7.63
2018-07-05T21:21:03.302Z,7.97
2018-07-05T21:23:42.763Z,7.77
2018-07-05T21:26:22.400Z,7.17
2018-07-05T21:28:55.979Z,8.30
2018-07-05T21:31:35.707Z,8.60
2018-07-05T21:34:15.428Z,8.10
2018-07-05T21:36:54.983Z,7.80
2018-07-05T21:39:34.718Z,8.10
2018-07-05T21:42:14.259Z,8.00
2018-07-05T21:44:53.765Z,7.90
2018-07-05T21:47:27.582Z,7.33
2018-07-05T21:50:07.276Z,8.10
2018-07-05T21:52:46.935Z,8.17
2018-07-05T21:55:26.540Z,7.47
2018-07-05T21:58:06.326Z,7.80
2018-07-05T22:00:45.998Z,8.20
2018-07-05T22:03:25.703Z,7.67
2018-07-05T22:06:05.321Z,8.23
2018-07-05T22:08:45.053Z,7.90
2018-07-05T22:11:24.511Z,8.00
2018-07-05T22:14:04.215Z,7.90
2018-07-05T22:16:49.348Z,8.23
2018-07-05T22:19:34.580Z,8.77
2018-07-05T22:22:19.715Z,8.70
2018-07-05T22:25:04.784Z,9.90
2018-07-05T22:27:44.090Z,8.53
2018-07-05T22:30:29.105Z,9.60
2018-07-05T22:33:08.816Z,9.20
2018-07-05T22:35:42.391Z,9.00
2018-07-05T22:38:22.077Z,9.60
2018-07-05T22:40:55.758Z,8.93
2018-07-05T22:43:35.336Z,8.90
2018-07-05T22:46:14.893Z,8.33
2018-07-05T22:48:54.795Z,8.60
2018-07-05T22:51:28.342Z,8.70
2018-07-05T22:54:07.960Z,8.40
2018-07-05T22:56:47.621Z,8.70
2018-07-05T22:59:27.223Z,8.80
2018-07-05T23:02:06.887Z,8.80
2018-07-05T23:04:46.592Z,8.60
2018-07-05T23:07:26.262Z,8.07
2018-07-05T23:10:05.881Z,8.37
2018-07-05T23:12:45.632Z,7.70
2018-07-05T23:15:25.139Z,7.37
2018-07-05T23:18:04.923Z,6.70
2018-07-05T23:20:38.579Z,7.30
2018-07-05T23:23:18.263Z,6.47
2018-07-05T23:25:51.850Z,6.90
2018-07-05T23:28:31.552Z,6.63
2018-07-05T23:31:11.403Z,6.63
2018-07-05T23:33:51.011Z,6.33
2018-07-05T23:36:24.681Z,6.40
2018-07-05T23:39:04.964Z,6.67
2018-07-05T23:41:38.466Z,6.67
2018-07-05T23:44:12.104Z,6.43
2018-07-05T23:46:51.660Z,6.70
2018-07-05T23:49:31.345Z,5.67
2018-07-05T23:52:04.899Z,5.90
2018-07-05T23:54:44.582Z,5.80
2018-07-05T23:57:24.239Z,6.43
2018-07-05T23:59:57.726Z,6.23
